Time;durP1;ratioP1;P1;durP2;ratioP2;P2;SDS_P1;SDS_P2;PMS_P1;PMS_P2;Temp;Humidity;BMP_temperature;BMP_pressure;BME280_temperature;BME280_humidity;BME280_pressure;Samples;Min_cycle;Max_cycle;Signal;HPM_P1;HPM_P2
2021/03/14 00:00:10;;;;;;;0.20;0.20;;;;;;;2.26;98.74;98742.66;4992889;28;20065;-88
2021/03/14 00:02:36;;;;;;;0.90;0.90;;;;;;;2.40;100.00;98729.13;4992315;28;20076;-86
2021/03/14 00:05:06;;;;;;;2.38;1.48;;;;;;;2.43;100.00;98690.16;4993021;28;20046;-85
2021/03/14 00:07:32;;;;;;;0.73;0.73;;;;;;;2.79;99.55;98717.59;4992692;28;20053;-86
2021/03/14 00:09:57;;;;;;;2.42;2.22;;;;;;;2.63;98.29;98698.06;4992783;28;20030;-86
2021/03/14 00:12:23;;;;;;;0.40;0.40;;;;;;;2.71;98.33;98703.13;4992789;28;20038;-86
2021/03/14 00:14:49;;;;;;;1.02;1.02;;;;;;;2.75;98.23;98725.78;4992577;28;20065;-85
2021/03/14 00:17:14;;;;;;;1.00;1.00;;;;;;;2.69;98.86;98712.88;4992888;28;20066;-86
2021/03/14 00:19:40;;;;;;;0.70;0.70;;;;;;;2.60;97.00;98715.16;4992950;28;20480;-87
2021/03/14 00:22:05;;;;;;;0.77;0.77;;;;;;;2.43;96.46;98703.81;4992604;28;20026;-87
2021/03/14 00:24:31;;;;;;;1.65;1.63;;;;;;;2.35;97.80;98706.88;4992634;28;20035;-86
2021/03/14 00:26:56;;;;;;;1.25;1.25;;;;;;;2.04;98.95;98664.66;4992534;28;20030;-86
2021/03/14 00:29:22;;;;;;;5.68;3.92;;;;;;;2.33;99.36;98701.81;4993231;28;20038;-87
2021/03/14 00:31:47;;;;;;;3.63;3.38;;;;;;;2.33;99.08;98701.03;4992712;28;20383;-87
2021/03/14 00:34:13;;;;;;;1.42;1.40;;;;;;;2.21;99.60;98672.16;4993143;28;20030;-88
2021/03/14 00:36:38;;;;;;;2.35;2.25;;;;;;;2.34;99.81;98689.75;4992533;28;20502;-87
2021/03/14 00:39:04;;;;;;;0.47;0.47;;;;;;;2.23;99.88;98671.78;4992712;28;20026;-86
2021/03/14 00:41:29;;;;;;;18.38;1.95;;;;;;;2.38;99.93;98682.34;4993056;28;20034;-86
2021/03/14 00:43:55;;;;;;;0.77;0.77;;;;;;;2.28;98.24;98680.38;4993324;28;20026;-87
2021/03/14 00:46:21;;;;;;;0.52;0.52;;;;;;;2.10;97.33;98678.72;4992520;28;20557;-87
2021/03/14 00:48:46;;;;;;;11.23;2.55;;;;;;;1.78;96.86;98687.44;4992462;28;20026;-86
2021/03/14 00:51:11;;;;;;;1.45;1.20;;;;;;;1.53;96.79;98664.69;4992430;28;20057;-86
2021/03/14 00:53:37;;;;;;;7.05;2.92;;;;;;;1.63;97.45;98686.53;4992714;28;20123;-87
2021/03/14 00:56:03;;;;;;;0.88;0.88;;;;;;;1.53;98.91;98660.03;4992067;28;20026;-86
2021/03/14 00:58:28;;;;;;;0.57;0.57;;;;;;;1.79;100.00;98689.00;4992575;28;20126;-85
2021/03/14 01:00:54;;;;;;;3.35;1.83;;;;;;;1.89;100.00;98682.06;4992399;28;20102;-87
2021/03/14 01:03:20;;;;;;;2.90;2.70;;;;;;;2.05;100.00;98668.94;4992336;28;20038;-86
2021/03/14 01:05:45;;;;;;;3.10;0.85;;;;;;;2.17;100.00;98648.78;4992195;28;20117;-85
2021/03/14 01:08:11;;;;;;;0.70;0.70;;;;;;;2.27;100.00;98654.28;4992144;28;20049;-86
2021/03/14 01:10:37;;;;;;;0.80;0.80;;;;;;;2.58;100.00;98669.22;4992302;28;20034;-86
2021/03/14 01:13:02;;;;;;;1.45;1.35;;;;;;;2.66;100.00;98664.53;4993771;28;20026;-87
2021/03/14 01:15:28;;;;;;;0.35;0.35;;;;;;;2.69;100.00;98667.28;4996108;28;20061;-85
2021/03/14 01:17:53;;;;;;;0.70;0.70;;;;;;;2.76;100.00;98674.72;4995710;28;20414;-86
2021/03/14 01:20:21;;;;;;;2.58;2.38;;;;;;;2.75;99.85;98667.72;4995654;28;20122;-87
2021/03/14 01:22:47;;;;;;;;;;;;;;;2.80;99.52;98661.88;4996070;28;20038;-85
2021/03/14 01:25:13;;;;;;;1.25;1.25;;;;;;;2.75;99.76;98662.25;4995736;28;20047;-88
2021/03/14 01:27:40;;;;;;;0.40;0.40;;;;;;;2.75;99.30;98671.22;4995813;28;20498;-89
2021/03/14 01:30:06;;;;;;;1.63;1.55;;;;;;;2.60;99.01;98633.34;4995744;28;20034;-91
2021/03/14 01:32:32;;;;;;;1.60;1.52;;;;;;;2.79;98.60;98658.34;4995499;28;20041;-91
2021/03/14 01:34:57;;;;;;;0.50;0.50;;;;;;;2.51;98.60;98633.72;4995297;28;20030;-85
2021/03/14 01:37:24;;;;;;;5.88;1.77;;;;;;;2.54;98.99;98627.50;4995284;28;20034;-87
2021/03/14 01:39:49;;;;;;;1.52;1.52;;;;;;;2.67;99.05;98655.19;4995470;28;20034;-88
2021/03/14 01:42:24;;;;;;;2.38;2.17;;;;;;;2.67;98.69;98672.34;4995642;28;20494;-89
2021/03/14 01:44:49;;;;;;;1.98;1.90;;;;;;;2.55;97.87;98663.72;4995589;28;20114;-88
2021/03/14 01:47:15;;;;;;;1.73;1.63;;;;;;;2.41;97.46;98659.78;4995647;28;20030;-90
2021/03/14 01:49:40;;;;;;;1.58;1.58;;;;;;;2.21;98.16;98663.19;4995338;28;20469;-88
2021/03/14 01:52:06;;;;;;;1.40;1.30;;;;;;;2.04;97.58;98659.22;4995668;28;20092;-89
2021/03/14 01:54:32;;;;;;;0.75;0.75;;;;;;;1.83;97.01;98657.13;4995322;28;20042;-89
2021/03/14 01:56:58;;;;;;;3.53;2.25;;;;;;;1.74;97.28;98658.63;4995523;28;20030;-89
2021/03/14 01:59:24;;;;;;;1.08;1.08;;;;;;;1.70;97.97;98657.81;4995936;28;20053;-89
2021/03/14 02:01:50;;;;;;;2.78;2.35;;;;;;;1.60;98.44;98665.53;4995137;28;20026;-89
2021/03/14 02:04:16;;;;;;;2.28;2.17;;;;;;;1.71;99.99;98653.94;4995021;28;20498;-90
2021/03/14 02:06:41;;;;;;;0.60;0.60;;;;;;;1.54;100.00;98628.91;4995968;28;20045;-88
2021/03/14 02:09:07;;;;;;;1.67;1.08;;;;;;;1.69;100.00;98659.75;4998505;28;20044;-88
2021/03/14 02:11:36;;;;;;;0.75;0.75;;;;;;;1.68;100.00;98647.31;4998216;28;20038;-87
2021/03/14 02:14:04;;;;;;;0.80;0.80;;;;;;;1.72;100.00;98661.72;4998098;28;20026;-89
2021/03/14 02:16:35;;;;;;;2.15;2.05;;;;;;;1.71;100.00;98656.66;4998732;28;20121;-88
2021/03/14 02:19:04;;;;;;;2.95;0.82;;;;;;;1.59;100.00;98620.41;4997631;28;20032;-86
2021/03/14 02:21:34;;;;;;;0.60;0.50;;;;;;;1.88;100.00;98648.59;4997948;28;20033;-88
2021/03/14 02:24:09;;;;;;;0.98;0.98;;;;;;;2.01;100.00;98632.72;4997986;28;20033;-88
2021/03/14 02:26:45;;;;;;;2.15;1.95;;;;;;;2.18;100.00;98648.38;4998375;28;20401;-89
2021/03/14 02:29:18;;;;;;;0.77;0.77;;;;;;;2.26;100.00;98649.97;4981624;28;20038;-89
2021/03/14 02:31:46;;;;;;;2.55;1.30;;;;;;;1.97;100.00;98601.94;4998108;28;20456;-87
2021/03/14 02:34:16;;;;;;;0.90;0.90;;;;;;;2.19;100.00;98636.31;4997788;28;20053;-88
2021/03/14 02:36:45;;;;;;;1.05;1.02;;;;;;;2.29;100.00;98651.94;4998269;28;20396;-88
2021/03/14 02:39:12;;;;;;;;;;;;;;;2.30;100.00;98642.59;4997999;28;20026;-87
2021/03/14 02:41:39;;;;;;;0.65;0.65;;;;;;;2.23;100.00;98630.91;4997464;28;19917;-89
2021/03/14 02:44:06;;;;;;;0.65;0.65;;;;;;;2.04;100.00;98604.72;4997539;28;20033;-87
2021/03/14 02:46:32;;;;;;;1.03;1.03;;;;;;;2.26;100.00;98649.97;4997490;28;20081;-89
2021/03/14 02:48:59;;;;;;;0.77;0.77;;;;;;;1.87;98.32;98621.75;4997905;28;20029;-88
2021/03/14 02:51:25;;;;;;;0.88;0.88;;;;;;;1.75;97.85;98643.84;4997340;28;20037;-88
2021/03/14 02:53:52;;;;;;;1.55;1.45;;;;;;;1.57;98.37;98643.69;4997184;28;20026;-90
2021/03/14 02:56:17;;;;;;;2.90;2.63;;;;;;;1.37;98.65;98645.91;4997198;28;20026;-88
2021/03/14 02:58:44;;;;;;;0.70;0.70;;;;;;;1.15;99.58;98604.09;4997363;28;20025;-87
2021/03/14 03:01:10;;;;;;;0.85;0.68;;;;;;;1.10;99.82;98598.22;4997328;28;20034;-89
2021/03/14 03:03:37;;;;;;;0.50;0.50;;;;;;;1.39;100.00;98649.00;4997529;28;20110;-88
2021/03/14 03:06:03;;;;;;;1.42;1.35;;;;;;;1.52;100.00;98639.41;4997050;28;20030;-88
2021/03/14 03:08:31;;;;;;;1.45;1.20;;;;;;;1.70;100.00;98661.31;4993654;28;20054;-90
2021/03/14 03:11:02;;;;;;;0.95;0.95;;;;;;;1.80;100.00;98652.44;4994073;28;20041;-88
2021/03/14 03:13:28;;;;;;;1.85;1.75;;;;;;;1.96;100.00;98655.66;4994827;28;20085;-87
2021/03/14 03:15:56;;;;;;;4.22;1.63;;;;;;;2.10;100.00;98651.47;4993908;28;20038;-90
2021/03/14 03:18:24;;;;;;;0.47;0.47;;;;;;;2.15;100.00;98640.97;4994228;28;20039;-90
2021/03/14 03:20:53;;;;;;;0.30;0.30;;;;;;;2.21;100.00;98652.28;4993583;28;20510;-87
2021/03/14 03:23:19;;;;;;;1.00;1.00;;;;;;;2.06;100.00;98648.69;4993274;28;20109;-89
2021/03/14 03:25:44;;;;;;;0.45;0.45;;;;;;;2.05;100.00;98647.13;4993646;28;20060;-87
2021/03/14 03:28:14;;;;;;;1.48;1.48;;;;;;;2.07;100.00;98660.38;4993472;28;20085;-90
2021/03/14 03:30:41;;;;;;;0.80;0.80;;;;;;;1.88;100.00;98664.16;4993839;28;20030;-89
2021/03/14 03:33:07;;;;;;;0.85;0.85;;;;;;;2.02;99.99;98642.47;4993669;28;20038;-88
2021/03/14 03:35:32;;;;;;;4.03;2.47;;;;;;;1.82;99.95;98616.63;4993000;28;20026;-89
2021/03/14 03:37:58;;;;;;;2.00;1.50;;;;;;;1.95;99.15;98648.63;4993124;28;20081;-89
2021/03/14 03:40:27;;;;;;;0.55;0.55;;;;;;;1.93;100.00;98650.19;4993142;28;20462;-89
2021/03/14 03:43:03;;;;;;;1.77;1.67;;;;;;;1.96;100.00;98647.47;4993311;28;20030;-90
2021/03/14 03:45:34;;;;;;;0.45;0.45;;;;;;;1.94;100.00;98640.84;4993751;28;20097;-89
2021/03/14 03:48:00;;;;;;;0.82;0.82;;;;;;;1.85;100.00;98635.75;4993575;28;20478;-89
2021/03/14 03:50:27;;;;;;;0.75;0.75;;;;;;;1.79;99.59;98640.00;4993062;28;20486;-90
2021/03/14 03:52:55;;;;;;;0.63;0.63;;;;;;;1.42;99.48;98626.50;4993127;28;20026;-88
2021/03/14 03:55:23;;;;;;;2.17;1.38;;;;;;;1.45;100.00;98638.56;4993412;28;20072;-88
2021/03/14 03:57:49;;;;;;;1.13;1.13;;;;;;;1.45;100.00;98642.06;4993552;28;20034;-89
2021/03/14 04:00:18;;;;;;;1.33;1.27;;;;;;;1.30;100.00;98621.34;4993165;28;20049;-89
2021/03/14 04:02:45;;;;;;;2.90;2.65;;;;;;;1.25;100.00;98615.47;4993484;28;20026;-88
2021/03/14 04:05:12;;;;;;;0.30;0.30;;;;;;;1.29;100.00;98638.03;4992966;28;20030;-88
2021/03/14 04:07:42;;;;;;;2.05;1.65;;;;;;;1.21;100.00;98640.69;4992574;28;20133;-88
2021/03/14 04:10:10;;;;;;;0.90;0.90;;;;;;;1.19;100.00;98639.53;4992883;28;20032;-88
2021/03/14 04:12:42;;;;;;;1.30;1.20;;;;;;;1.05;100.00;98620.34;4992783;28;20034;-89
2021/03/14 04:15:09;;;;;;;1.73;1.65;;;;;;;1.23;100.00;98630.22;4992757;28;20034;-90
2021/03/14 04:17:37;;;;;;;1.38;0.93;;;;;;;1.22;100.00;98595.22;4993536;28;20030;-88
2021/03/14 04:20:04;;;;;;;0.73;0.73;;;;;;;1.15;100.00;98603.31;4993155;28;20038;-88
2021/03/14 04:22:30;;;;;;;1.05;1.05;;;;;;;1.08;100.00;98597.84;4993302;28;20026;-88
2021/03/14 04:24:58;;;;;;;0.68;0.68;;;;;;;1.24;100.00;98631.00;4992378;28;20038;-89
2021/03/14 04:27:26;;;;;;;3.35;2.97;;;;;;;1.01;100.00;98612.16;4992693;28;20038;-89
2021/03/14 04:29:54;;;;;;;1.67;1.33;;;;;;;0.99;100.00;98587.25;4993275;28;20036;-91
2021/03/14 04:32:22;;;;;;;0.57;0.57;;;;;;;1.19;100.00;98607.66;4992645;28;20265;-90
2021/03/14 04:34:49;;;;;;;1.77;1.73;;;;;;;1.25;100.00;98604.59;4992676;28;20038;-89
2021/03/14 04:37:16;;;;;;;6.30;3.47;;;;;;;1.37;100.00;98617.91;4992594;28;20030;-90
2021/03/14 04:39:42;;;;;;;2.53;2.42;;;;;;;1.26;100.00;98598.00;4992591;28;20037;-89
2021/03/14 04:42:08;;;;;;;0.70;0.70;;;;;;;1.37;100.00;98626.06;4992591;28;20113;-91
2021/03/14 04:44:33;;;;;;;2.28;2.17;;;;;;;1.18;100.00;98587.03;4992579;28;20040;-91
2021/03/14 04:46:59;;;;;;;4.10;1.27;;;;;;;1.37;100.00;98623.34;4992560;28;20030;-91
2021/03/14 04:49:25;;;;;;;1.08;1.08;;;;;;;1.38;100.00;98614.81;4996918;28;20045;-91
2021/03/14 04:51:51;;;;;;;0.40;0.40;;;;;;;1.58;100.00;98609.88;4996399;28;20454;-90
2021/03/14 04:54:17;;;;;;;2.67;1.45;;;;;;;1.65;100.00;98620.81;4996360;28;20057;-89
2021/03/14 04:56:42;;;;;;;0.65;0.65;;;;;;;1.61;100.00;98560.91;4996423;28;20109;-89
2021/03/14 04:59:13;;;;;;;1.95;1.20;;;;;;;2.24;99.43;98621.53;4996199;28;20125;-90
2021/03/14 05:01:40;;;;;;;1.67;1.58;;;;;;;2.32;98.18;98613.00;4996110;28;20027;-88
2021/03/14 05:04:08;;;;;;;0.93;0.93;;;;;;;2.35;97.32;98601.31;4996451;28;20023;-92
2021/03/14 05:06:34;;;;;;;0.47;0.47;;;;;;;2.57;97.13;98618.56;4996318;28;20030;-92
2021/03/14 05:09:02;;;;;;;1.15;1.13;;;;;;;2.53;97.22;98606.09;4999682;28;20033;-91
2021/03/14 05:11:28;;;;;;;0.30;0.30;;;;;;;2.47;96.59;98575.69;4999613;28;20076;-90
2021/03/14 05:13:53;;;;;;;0.38;0.38;;;;;;;2.82;96.63;98618.63;5032100;28;20029;-89
2021/03/14 05:16:19;;;;;;;0.55;0.55;;;;;;;2.88;95.63;98597.97;4999134;28;20164;-88
2021/03/14 05:18:46;;;;;;;0.57;0.57;;;;;;;3.35;94.52;98609.69;5016778;28;20104;-87
2021/03/14 05:21:12;;;;;;;5.18;3.75;;;;;;;3.68;92.97;98603.81;4998976;28;20025;-89
2021/03/14 05:23:39;;;;;;;2.53;2.25;;;;;;;3.95;90.27;98602.19;4999081;28;20030;-88
2021/03/14 05:26:09;;;;;;;8.98;2.65;;;;;;;4.11;88.40;98566.22;4999019;28;20026;-87
2021/03/14 05:28:37;;;;;;;2.40;1.95;;;;;;;4.46;87.12;98593.41;4999092;28;20548;-89
2021/03/14 05:31:03;;;;;;;1.30;1.30;;;;;;;4.78;85.82;98589.72;4998976;28;20022;-88
2021/03/14 05:33:29;;;;;;;3.30;3.10;;;;;;;5.29;84.07;98591.72;5016462;28;20042;-88
2021/03/14 05:35:54;;;;;;;1.75;1.65;;;;;;;6.06;78.68;98614.91;4998637;28;20033;-86
2021/03/14 05:38:20;;;;;;;2.10;1.75;;;;;;;5.93;78.47;98604.84;4999105;28;20029;-86
2021/03/14 05:40:45;;;;;;;1.67;1.58;;;;;;;6.10;76.03;98614.84;4998696;28;20478;-84
2021/03/14 05:43:11;;;;;;;1.65;1.60;;;;;;;6.92;74.18;98618.16;4998630;28;20041;-85
2021/03/14 05:45:37;;;;;;;12.95;10.25;;;;;;;7.30;72.55;98606.97;4998955;28;20104;-83
2021/03/14 05:48:04;;;;;;;5.25;3.65;;;;;;;7.62;73.09;98612.75;4998500;28;20034;-82
2021/03/14 05:50:30;;;;;;;2.50;2.38;;;;;;;8.36;68.81;98546.53;4998307;28;20026;-80
2021/03/14 05:52:56;;;;;;;3.22;3.03;;;;;;;9.16;66.65;98576.22;4998467;28;20453;-80
2021/03/14 05:55:27;;;;;;;5.10;4.70;;;;;;;9.09;67.12;98587.44;4998313;28;20030;-80
2021/03/14 05:57:55;;;;;;;2.83;2.13;;;;;;;10.19;64.61;98624.06;4998276;28;20069;-84
2021/03/14 06:00:27;;;;;;;2.00;1.90;;;;;;;10.00;63.66;98588.31;4997621;28;20405;-82
2021/03/14 06:02:57;;;;;;;4.68;3.83;;;;;;;10.57;62.62;98617.91;4998421;28;20030;-80
2021/03/14 06:05:26;;;;;;;3.38;3.17;;;;;;;10.50;62.09;98555.34;4999234;28;20029;-80
2021/03/14 06:07:53;;;;;;;3.15;2.83;;;;;;;10.93;62.28;98595.53;4998396;28;20140;-81
2021/03/14 06:10:19;;;;;;;4.85;4.13;;;;;;;10.74;62.19;98624.91;5000298;28;20030;-80
2021/03/14 06:12:45;;;;;;;1.75;1.70;;;;;;;10.96;61.30;98594.66;4998265;28;20036;-81
2021/03/14 06:15:11;;;;;;;3.40;2.53;;;;;;;11.75;60.62;98622.16;4998721;28;20026;-82
2021/03/14 06:17:37;;;;;;;6.70;2.03;;;;;;;12.19;57.83;98617.47;4997983;28;20064;-79
2021/03/14 06:20:05;;;;;;;7.50;4.47;;;;;;;12.31;56.68;98623.41;4997799;28;20055;-78
2021/03/14 06:22:30;;;;;;;12.77;5.40;;;;;;;12.71;55.64;98623.56;4998015;28;20033;-80
2021/03/14 06:25:04;;;;;;;3.72;3.28;;;;;;;13.06;54.98;98630.53;4997504;28;20044;-79
2021/03/14 06:27:58;;;;;;;24.25;14.07;;;;;;;13.20;54.39;98641.09;4997254;28;20088;-79
2021/03/14 06:30:29;;;;;;;23.05;18.30;;;;;;;13.18;54.63;98603.97;4997506;28;20081;-78
2021/03/14 06:33:10;;;;;;;2.92;2.80;;;;;;;14.13;52.90;98638.13;4997653;28;20039;-79
2021/03/14 06:35:48;;;;;;;3.03;1.67;;;;;;;14.79;51.34;98624.53;5030206;28;20052;-79
2021/03/14 06:38:34;;;;;;;2.08;1.98;;;;;;;14.76;49.91;98584.53;4997098;28;20084;-78
2021/03/14 06:41:06;;;;;;;1.75;1.60;;;;;;;15.08;49.14;98591.34;4997542;28;20164;-79
2021/03/14 06:43:32;;;;;;;2.85;1.48;;;;;;;15.45;49.16;98625.38;5030305;28;20026;-80
2021/03/14 06:45:58;;;;;;;3.28;2.00;;;;;;;15.49;48.94;98615.59;4996916;28;20040;-79
2021/03/14 06:48:26;;;;;;;3.20;1.83;;;;;;;16.12;48.21;98610.94;4997466;28;20057;-78
2021/03/14 06:50:52;;;;;;;1.10;1.10;;;;;;;16.10;47.85;98618.97;4997170;28;20124;-80
2021/03/14 06:53:20;;;;;;;1.35;1.30;;;;;;;16.42;46.87;98549.63;4996923;28;20120;-80
2021/03/14 06:55:47;;;;;;;2.70;2.50;;;;;;;17.57;44.91;98595.94;4996485;28;20041;-80
2021/03/14 06:58:19;;;;;;;1.90;1.80;;;;;;;18.46;41.85;98571.88;4996572;28;20034;-79
2021/03/14 07:01:08;;;;;;;4.53;1.65;;;;;;;18.85;41.80;98595.47;4996970;28;20068;-79
2021/03/14 07:03:34;;;;;;;2.90;1.33;;;;;;;18.67;40.99;98562.22;4996835;28;20037;-78
2021/03/14 07:06:12;;;;;;;2.80;2.08;;;;;;;19.24;40.22;98581.78;4996826;28;20029;-77
2021/03/14 07:08:37;;;;;;;1.90;1.80;;;;;;;19.71;39.74;98594.34;4996765;28;20498;-78
2021/03/14 07:11:02;;;;;;;1.75;1.63;;;;;;;19.42;38.96;98589.03;4996439;28;20124;-79
2021/03/14 07:13:28;;;;;;;2.45;1.30;;;;;;;19.44;38.56;98578.88;4996839;28;20045;-78
2021/03/14 07:15:53;;;;;;;3.97;1.95;;;;;;;20.16;37.61;98581.28;4996646;28;20775;-75
2021/03/14 07:18:19;;;;;;;1.67;1.58;;;;;;;20.02;38.31;98559.81;4996003;28;20524;-77
2021/03/14 07:20:45;;;;;;;6.82;3.22;;;;;;;20.17;37.95;98582.06;4996493;28;20558;-76
2021/03/14 07:23:11;;;;;;;1.80;1.70;;;;;;;19.34;39.54;98583.13;4996637;28;20083;-77
2021/03/14 07:25:48;;;;;;;2.72;1.48;;;;;;;17.97;43.20;98572.84;4996523;28;20056;-78
2021/03/14 07:28:13;;;;;;;1.63;1.52;;;;;;;17.26;43.33;98537.84;4997479;28;20030;-77
2021/03/14 07:30:39;;;;;;;13.38;1.38;;;;;;;16.41;45.34;98587.13;4996406;28;20553;-77
2021/03/14 07:33:10;;;;;;;1.85;1.75;;;;;;;15.83;46.90;98580.19;4996358;28;20038;-78
2021/03/14 07:35:35;;;;;;;3.38;1.77;;;;;;;15.67;49.31;98589.69;4996906;28;20030;-78
2021/03/14 07:38:01;;;;;;;1.48;1.20;;;;;;;15.30;49.69;98557.72;4996284;28;20120;-78
2021/03/14 07:40:29;;;;;;;1.38;1.27;;;;;;;14.89;49.89;98520.34;5029188;28;20022;-78
2021/03/14 07:43:00;;;;;;;;;;;;;;;14.95;51.30;98574.88;4997260;28;20030;-78
2021/03/14 07:45:27;;;;;;;2.85;2.65;;;;;;;14.68;52.98;98554.72;4996622;28;19909;-77
2021/03/14 07:47:53;;;;;;;3.10;2.45;;;;;;;14.34;51.97;98566.97;4996503;28;20049;-77
2021/03/14 07:50:26;;;;;;;4.03;2.22;;;;;;;13.24;56.75;98480.84;4996072;28;20026;-78
2021/03/14 07:52:57;;;;;;;12.15;1.45;;;;;;;12.98;56.42;98551.59;4996298;28;20026;-78
2021/03/14 07:55:23;;;;;;;3.08;2.55;;;;;;;13.14;55.06;98522.88;4996149;28;20498;-78
2021/03/14 07:57:52;;;;;;;2.25;1.88;;;;;;;12.84;58.68;98499.50;4996050;28;20038;-78
2021/03/14 08:00:33;;;;;;;3.22;2.05;;;;;;;13.00;58.19;98511.09;4996014;28;20124;-78
2021/03/14 08:03:01;;;;;;;3.25;2.95;;;;;;;12.17;59.73;98538.84;4996576;28;20065;-78
2021/03/14 08:05:46;;;;;;;2.58;2.30;;;;;;;12.22;62.78;98527.97;4996034;28;20041;-78
2021/03/14 08:08:32;;;;;;;1.85;1.48;;;;;;;12.10;61.81;98478.94;4995629;28;20057;-78
2021/03/14 08:10:59;;;;;;;1.98;1.80;;;;;;;12.53;60.76;98518.91;4995664;28;20034;-77
2021/03/14 08:13:30;;;;;;;4.10;3.78;;;;;;;12.48;59.15;98478.69;4995814;28;20033;-77
2021/03/14 08:16:03;;;;;;;5.32;4.95;;;;;;;12.72;59.69;98534.38;5028782;28;20025;-78
2021/03/14 08:18:43;;;;;;;1.10;1.10;;;;;;;12.67;58.71;98540.53;4995920;28;20546;-77
2021/03/14 08:21:21;;;;;;;2.78;2.53;;;;;;;12.38;58.91;98493.72;4995527;28;20037;-77
2021/03/14 08:23:49;;;;;;;7.00;4.80;;;;;;;12.45;60.22;98528.72;4996094;28;20081;-77
2021/03/14 08:26:27;;;;;;;7.68;4.30;;;;;;;12.01;59.75;98461.50;4995714;28;20577;-78
2021/03/14 08:28:57;;;;;;;;;;;;;;;12.20;61.01;98502.69;4996772;28;20026;-78
2021/03/14 08:31:52;;;;;;;3.92;1.98;;;;;;;11.63;64.33;98481.03;4995828;28;19940;-78
2021/03/14 08:34:25;;;;;;;3.53;3.22;;;;;;;11.70;64.02;98448.31;4995722;28;20030;-78
2021/03/14 08:36:51;;;;;;;1.45;1.45;;;;;;;12.08;59.75;98469.53;5029213;28;20452;-79
2021/03/14 08:39:33;;;;;;;3.70;3.22;;;;;;;12.49;59.23;98485.00;4995692;28;20036;-78
2021/03/14 08:42:01;;;;;;;0.82;0.82;;;;;;;12.46;59.15;98452.66;4995958;28;20426;-78
2021/03/14 08:44:40;;;;;;;2.85;2.45;;;;;;;12.56;58.19;98465.34;4995881;28;20094;-78
2021/03/14 08:47:15;;;;;;;3.17;2.92;;;;;;;12.69;58.43;98454.16;4996011;28;20492;-78
2021/03/14 08:49:55;;;;;;;2.85;2.70;;;;;;;13.00;57.68;98502.00;4995849;28;20486;-77
2021/03/14 08:52:21;;;;;;;2.75;2.53;;;;;;;12.54;57.87;98432.53;4995913;28;20124;-77
2021/03/14 08:54:54;;;;;;;4.97;3.63;;;;;;;12.74;59.25;98482.03;4995617;28;20467;-78
2021/03/14 08:57:19;;;;;;;4.75;1.73;;;;;;;12.83;57.14;98473.78;4995791;28;20026;-77
2021/03/14 08:59:49;;;;;;;5.10;2.70;;;;;;;13.03;56.36;98465.78;4995585;28;20496;-77
2021/03/14 09:02:28;;;;;;;5.95;3.63;;;;;;;13.11;57.46;98435.00;5028142;28;20040;-78
2021/03/14 09:05:17;;;;;;;4.50;3.28;;;;;;;13.30;56.92;98456.81;4995447;28;20032;-77
2021/03/14 09:07:44;;;;;;;4.63;2.85;;;;;;;13.26;58.52;98466.50;4995416;28;20072;-78
2021/03/14 09:10:13;;;;;;;4.43;3.13;;;;;;;13.49;57.97;98451.25;4995446;28;20464;-77
2021/03/14 09:12:40;;;;;;;4.15;3.78;;;;;;;13.07;56.72;98429.63;4995432;28;20486;-78
2021/03/14 09:15:08;;;;;;;2.50;2.25;;;;;;;13.46;56.55;98458.50;4995225;28;20026;-77
2021/03/14 09:17:42;;;;;;;2.45;1.58;;;;;;;13.24;56.32;98425.34;4995406;28;20112;-78
2021/03/14 09:20:08;;;;;;;2.05;1.92;;;;;;;13.17;54.92;98461.72;4995236;28;20030;-77
2021/03/14 09:22:36;;;;;;;1.92;1.83;;;;;;;12.79;54.97;98419.66;4995327;28;20453;-77
2021/03/14 09:25:05;;;;;;;;;;;;;;;12.83;57.36;98453.59;4995701;28;20112;-77
2021/03/14 09:27:33;;;;;;;2.38;2.28;;;;;;;13.04;55.63;98442.38;4995025;28;19915;-77
2021/03/14 09:30:08;;;;;;;2.30;2.13;;;;;;;13.07;55.17;98421.28;4995020;28;20038;-77
2021/03/14 09:32:43;;;;;;;7.63;2.58;;;;;;;13.54;55.39;98454.19;4995203;28;20033;-77
2021/03/14 09:35:17;;;;;;;5.93;2.80;;;;;;;13.57;55.27;98416.41;4997039;28;20099;-78
2021/03/14 09:37:48;;;;;;;5.20;3.70;;;;;;;13.48;55.40;98431.06;4998595;28;20128;-78
2021/03/14 09:40:23;;;;;;;3.70;2.78;;;;;;;13.45;56.07;98432.75;4998817;28;20029;-79
2021/03/14 09:43:02;;;;;;;1.55;1.48;;;;;;;13.14;56.74;98409.91;4998451;28;20037;-80
2021/03/14 09:45:28;;;;;;;2.00;1.60;;;;;;;13.29;55.81;98421.19;4998949;28;20045;-80
2021/03/14 09:48:14;;;;;;;7.65;2.25;;;;;;;13.51;55.63;98418.25;4998779;28;20120;-80
2021/03/14 09:50:47;;;;;;;2.10;1.77;;;;;;;13.33;55.16;98372.63;4998511;28;20567;-79
2021/03/14 09:53:14;;;;;;;3.60;3.05;;;;;;;13.35;57.40;98350.75;4996243;28;20076;-79
2021/03/14 09:55:50;;;;;;;2.00;1.90;;;;;;;13.83;55.69;98404.50;4996231;28;20065;-80
2021/03/14 09:58:17;;;;;;;3.25;2.63;;;;;;;13.53;55.32;98351.94;4996078;28;20026;-80
2021/03/14 10:00:46;;;;;;;3.08;1.85;;;;;;;13.69;55.24;98399.56;4996089;28;20044;-80
2021/03/14 10:03:12;;;;;;;;;;;;;;;13.78;54.71;98394.03;4996665;28;20053;-79
2021/03/14 10:05:49;;;;;;;2.55;1.70;;;;;;;13.09;54.48;98324.50;4998207;28;19909;-79
2021/03/14 10:08:16;;;;;;;2.08;1.98;;;;;;;13.60;58.19;98382.16;4998108;28;20050;-80
2021/03/14 10:10:42;;;;;;;3.00;1.75;;;;;;;13.62;54.12;98380.47;5030978;28;20033;-78
2021/03/14 10:13:08;;;;;;;1.52;1.30;;;;;;;13.76;54.36;98409.59;4998006;28;20038;-79
2021/03/14 10:15:35;;;;;;;2.08;1.33;;;;;;;13.83;55.50;98385.06;4997549;28;20038;-78
2021/03/14 10:18:05;;;;;;;3.78;2.00;;;;;;;13.83;54.35;98392.63;4997949;28;20034;-79
2021/03/14 10:20:31;;;;;;;2.08;1.58;;;;;;;13.36;54.58;98370.94;4997874;28;20041;-80
2021/03/14 10:23:06;;;;;;;6.32;3.88;;;;;;;13.75;54.94;98385.84;4997853;28;20061;-79
2021/03/14 10:25:37;;;;;;;1.90;1.80;;;;;;;13.79;54.57;98364.25;4997899;28;20033;-79
2021/03/14 10:28:13;;;;;;;2.15;1.95;;;;;;;13.85;52.71;98371.50;4997830;28;20040;-78
2021/03/14 10:30:42;;;;;;;1.08;1.08;;;;;;;13.91;53.25;98390.31;4998323;28;20386;-80
2021/03/14 10:33:12;;;;;;;0.68;0.68;;;;;;;13.82;53.74;98327.97;4997616;28;20026;-81
2021/03/14 10:35:39;;;;;;;2.05;1.38;;;;;;;13.76;52.51;98360.38;4997903;28;20053;-79
2021/03/14 10:38:15;;;;;;;3.78;3.10;;;;;;;13.53;54.18;98305.53;4997615;28;20034;-79
2021/03/14 10:40:40;;;;;;;1.77;1.70;;;;;;;13.79;54.74;98356.69;4997814;28;20034;-80
2021/03/14 10:43:21;;;;;;;1.35;1.27;;;;;;;13.52;53.11;98353.94;4997729;28;20091;-81
2021/03/14 10:45:47;;;;;;;0.90;0.90;;;;;;;13.44;55.67;98330.53;4997440;28;20397;-80
2021/03/14 10:48:13;;;;;;;1.65;1.27;;;;;;;13.84;53.10;98347.72;4997628;28;20124;-81
2021/03/14 10:50:39;;;;;;;1.65;1.20;;;;;;;14.00;52.36;98348.59;4997551;28;20494;-80
2021/03/14 10:53:26;;;;;;;1.10;1.02;;;;;;;13.64;50.85;98272.50;4998159;28;20037;-79
2021/03/14 10:56:04;;;;;;;1.08;1.08;;;;;;;13.67;51.56;98293.03;4997482;28;20076;-80
2021/03/14 10:58:40;;;;;;;1.67;1.58;;;;;;;14.13;53.51;98324.16;4997984;28;20034;-80
2021/03/14 11:01:08;;;;;;;2.00;1.75;;;;;;;13.88;55.39;98263.47;4997337;28;20026;-78
2021/03/14 11:03:38;;;;;;;8.65;1.75;;;;;;;14.08;53.04;98280.38;4997061;28;20026;-79
2021/03/14 11:06:14;;;;;;;8.52;1.88;;;;;;;14.06;51.44;98260.59;4997313;28;20124;-79
2021/03/14 11:08:51;;;;;;;17.42;1.38;;;;;;;14.41;50.96;98306.16;4996991;28;20430;-79
2021/03/14 11:11:17;;;;;;;2.92;1.80;;;;;;;14.29;52.19;98296.00;4997614;28;20496;-78
2021/03/14 11:13:42;;;;;;;1.45;1.42;;;;;;;14.25;52.08;98273.16;4996556;28;20029;-75
2021/03/14 11:16:10;;;;;;;1.23;1.13;;;;;;;14.31;52.83;98285.19;4996823;28;20072;-77
2021/03/14 11:18:36;;;;;;;2.15;1.05;;;;;;;14.46;51.25;98286.06;4997007;28;20026;-77
2021/03/14 11:21:06;;;;;;;2.00;1.73;;;;;;;14.43;52.51;98270.31;4997214;28;20030;-77
2021/03/14 11:23:32;;;;;;;1.23;1.15;;;;;;;14.29;52.13;98257.09;4996807;28;20030;-77
2021/03/14 11:25:58;;;;;;;1.88;1.35;;;;;;;14.52;50.70;98284.19;5014055;28;20452;-77
2021/03/14 11:28:24;;;;;;;0.77;0.77;;;;;;;14.17;50.52;98258.84;4996925;28;20524;-77
2021/03/14 11:30:55;;;;;;;0.60;0.60;;;;;;;14.23;51.95;98256.19;4994945;28;20036;-76
2021/03/14 11:33:20;;;;;;;0.70;0.70;;;;;;;14.36;50.98;98253.19;4996305;28;20029;-78
2021/03/14 11:35:46;;;;;;;1.85;1.75;;;;;;;14.31;50.06;98253.84;4996036;28;20034;-79
2021/03/14 11:38:12;;;;;;;0.77;0.77;;;;;;;14.27;52.52;98234.56;5028826;28;20032;-79
2021/03/14 11:40:38;;;;;;;1.58;1.48;;;;;;;14.39;51.43;98244.72;4995857;28;20025;-77
2021/03/14 11:43:03;;;;;;;1.83;1.73;;;;;;;14.30;51.21;98214.16;4996341;28;20068;-77